createdAt,value
2018-02-24T00:01:41.002Z,1.84
2018-02-24T00:04:08.663Z,1.98
2018-02-24T00:06:36.172Z,2.09
2018-02-24T00:09:04.210Z,1.77
2018-02-24T00:11:31.726Z,1.77
2018-02-24T00:13:59.285Z,1.98
2018-02-24T00:16:26.798Z,1.93
2018-02-24T00:18:54.321Z,2.20
2018-02-24T00:21:21.862Z,1.79
2018-02-24T00:23:49.385Z,1.74
2018-02-24T00:26:16.938Z,1.91
2018-02-24T00:28:44.449Z,1.85
2018-02-24T00:31:11.969Z,2.00
2018-02-24T00:33:39.518Z,2.02
2018-02-24T00:36:07.029Z,1.98
2018-02-24T00:38:34.582Z,1.87
2018-02-24T00:41:02.122Z,1.97
2018-02-24T00:43:29.647Z,2.30
2018-02-24T00:45:57.199Z,1.92
2018-02-24T00:48:24.725Z,1.86
2018-02-24T00:50:52.460Z,2.02
2018-02-24T00:53:19.990Z,1.92
2018-02-24T00:55:47.505Z,1.89
2018-02-24T00:58:15.189Z,2.09
2018-02-24T01:00:42.706Z,2.29
2018-02-24T01:03:10.266Z,2.25
2018-02-24T01:05:37.828Z,2.06
2018-02-24T01:08:05.314Z,2.18
2018-02-24T01:10:32.883Z,2.21
2018-02-24T01:13:00.402Z,2.20
2018-02-24T01:15:28.077Z,2.03
2018-02-24T01:17:55.594Z,2.07
2018-02-24T01:20:23.114Z,2.15
2018-02-24T01:22:50.658Z,2.06
2018-02-24T01:25:18.172Z,2.24
2018-02-24T01:27:45.722Z,2.06
2018-02-24T01:30:13.242Z,2.43
2018-02-24T01:32:40.758Z,2.44
2018-02-24T01:35:08.306Z,2.63
2018-02-24T01:37:35.826Z,2.40
2018-02-24T01:40:03.378Z,2.10
2018-02-24T01:42:30.900Z,2.04
2018-02-24T01:44:58.488Z,2.22
2018-02-24T01:47:26.038Z,2.17
2018-02-24T01:49:53.573Z,1.81
2018-02-24T01:52:21.278Z,2.05
2018-02-24T01:54:48.790Z,1.89
2018-02-24T01:57:16.309Z,1.90
2018-02-24T01:59:43.855Z,1.78
2018-02-24T02:02:11.381Z,1.77
2018-02-24T02:04:39.058Z,1.73
2018-02-24T02:07:06.631Z,1.49
2018-02-24T02:09:34.150Z,1.50
2018-02-24T02:12:01.693Z,1.37
2018-02-24T02:14:29.219Z,1.41
2018-02-24T02:16:56.771Z,1.39
2018-02-24T02:19:24.291Z,1.55
2018-02-24T02:21:51.821Z,1.34
2018-02-24T02:24:19.393Z,1.28
2018-02-24T02:26:46.921Z,1.29
2018-02-24T02:29:14.882Z,1.11
2018-02-24T02:31:42.404Z,1.07
2018-02-24T02:34:09.929Z,1.16
2018-02-24T02:36:37.475Z,1.05
2018-02-24T02:39:05.006Z,0.82
2018-02-24T02:41:32.650Z,0.75
2018-02-24T02:44:00.174Z,0.69
2018-02-24T02:46:27.695Z,0.85
2018-02-24T02:48:55.247Z,0.88
2018-02-24T02:51:22.767Z,0.59
2018-02-24T02:53:50.411Z,0.68
2018-02-24T02:56:17.923Z,0.75
2018-02-24T02:58:45.439Z,0.31
2018-02-24T03:01:12.985Z,0.39
2018-02-24T03:03:40.502Z,0.62
2018-02-24T03:06:08.075Z,0.41
2018-02-24T03:08:35.593Z,0.26
2018-02-24T03:11:03.113Z,0.26
2018-02-24T03:13:30.658Z,0.33
2018-02-24T03:15:58.177Z,0.13
2018-02-24T03:18:25.734Z,0.08
2018-02-24T03:20:53.251Z,0.05
2018-02-24T03:23:20.766Z,-0.03
2018-02-24T03:25:48.307Z,-0.10
2018-02-24T03:28:15.825Z,0.00
2018-02-24T03:30:43.628Z,-0.24
2018-02-24T03:33:11.158Z,-0.32
2018-02-24T03:35:38.686Z,-0.57
2018-02-24T03:38:06.240Z,-0.41
2018-02-24T03:40:33.761Z,-0.49
2018-02-24T03:43:01.330Z,-0.69
2018-02-24T03:45:28.855Z,-0.90
2018-02-24T03:47:56.373Z,-0.88
2018-02-24T03:50:23.929Z,-0.75
2018-02-24T03:52:51.450Z,-0.68
2018-02-24T03:55:19.022Z,-0.54
2018-02-24T03:57:46.649Z,-0.78
2018-02-24T04:00:14.169Z,-0.95
2018-02-24T04:02:41.721Z,-0.82
2018-02-24T04:05:09.280Z,-0.84
2018-02-24T04:07:36.837Z,-0.96
2018-02-24T04:10:04.364Z,-0.73
2018-02-24T04:12:31.883Z,-0.90
2018-02-24T04:14:59.447Z,-0.77
2018-02-24T04:17:26.967Z,-0.90
2018-02-24T04:19:54.914Z,-0.95
2018-02-24T04:22:22.453Z,-1.09
2018-02-24T04:24:49.978Z,-1.18
2018-02-24T04:27:17.521Z,-0.92
2018-02-24T04:29:45.063Z,-0.95
2018-02-24T04:32:12.610Z,-1.03
2018-02-24T04:34:40.122Z,-1.13
2018-02-24T04:37:07.648Z,-0.96
2018-02-24T04:39:35.192Z,-0.83
2018-02-24T04:42:02.718Z,-0.83
2018-02-24T04:44:30.340Z,-1.03
2018-02-24T04:46:57.842Z,-1.07
2018-02-24T04:49:25.397Z,-1.07
2018-02-24T04:51:52.929Z,-1.09
2018-02-24T04:54:20.487Z,-1.01
2018-02-24T04:56:48.058Z,-1.13
2018-02-24T04:59:15.578Z,-1.41
2018-02-24T05:01:43.103Z,-1.23
2018-02-24T05:04:10.653Z,-1.44
2018-02-24T05:06:38.176Z,-1.47
2018-02-24T05:09:05.897Z,-1.55
2018-02-24T05:11:33.417Z,-1.45
2018-02-24T05:14:00.937Z,-1.62
2018-02-24T05:16:28.673Z,-1.62
2018-02-24T05:18:56.210Z,-1.52
2018-02-24T05:21:24.104Z,-1.64
2018-02-24T05:23:51.621Z,-1.68
2018-02-24T05:26:19.139Z,-1.56
2018-02-24T05:28:46.691Z,-1.79
2018-02-24T05:31:14.205Z,-1.82
2018-02-24T05:33:41.779Z,-1.75
2018-02-24T05:36:09.390Z,-1.70
2018-02-24T05:38:36.912Z,-1.78
2018-02-24T05:41:04.469Z,-1.58
2018-02-24T05:43:31.990Z,-1.75
2018-02-24T05:45:59.697Z,-1.67
2018-02-24T05:48:27.221Z,-1.62
2018-02-24T05:50:54.743Z,-1.66
2018-02-24T05:53:22.290Z,-1.61
2018-02-24T05:55:49.814Z,-1.73
2018-02-24T05:58:17.597Z,-1.91
2018-02-24T06:00:45.126Z,-1.93
2018-02-24T06:03:12.675Z,-2.03
2018-02-24T06:05:40.229Z,-1.85
2018-02-24T06:08:07.756Z,-1.87
2018-02-24T06:10:35.413Z,-2.02
2018-02-24T06:13:02.959Z,-2.08
2018-02-24T06:15:30.650Z,-1.86
2018-02-24T06:17:58.194Z,-1.89
2018-02-24T06:20:25.801Z,-1.87
2018-02-24T06:22:53.366Z,-2.01
2018-02-24T06:25:20.904Z,-2.05
2018-02-24T06:27:48.430Z,-1.91
2018-02-24T06:30:15.993Z,-2.03
2018-02-24T06:32:43.508Z,-2.02
2018-02-24T06:35:11.054Z,-2.19
2018-02-24T06:37:38.577Z,-2.19
2018-02-24T06:40:06.111Z,-2.13
2018-02-24T06:42:33.670Z,-2.23
2018-02-24T06:45:01.205Z,-2.17
2018-02-24T06:47:28.885Z,-2.18
2018-02-24T06:49:56.418Z,-2.12
2018-02-24T06:52:23.961Z,-1.88
2018-02-24T06:54:51.510Z,-1.97
2018-02-24T06:57:19.050Z,-1.83
2018-02-24T06:59:47.928Z,-1.95
2018-02-24T07:02:15.440Z,-1.86
2018-02-24T07:04:42.967Z,-1.80
2018-02-24T07:07:10.517Z,-1.36
2018-02-24T07:09:38.985Z,-1.70
2018-02-24T07:12:07.977Z,-1.68
2018-02-24T07:14:36.458Z,-1.53
2018-02-24T07:17:04.008Z,-1.65
2018-02-24T07:19:31.575Z,-1.45
2018-02-24T07:21:59.106Z,-1.39
2018-02-24T07:24:27.025Z,-1.41
2018-02-24T07:26:54.566Z,-1.33
2018-02-24T07:29:23.044Z,-1.19
2018-02-24T07:31:50.591Z,-1.23
2018-02-24T07:34:18.117Z,-1.13
2018-02-24T07:36:45.662Z,-0.90
2018-02-24T07:39:13.191Z,-1.03
2018-02-24T07:41:41.658Z,-0.98
2018-02-24T07:44:09.202Z,-1.06
2018-02-24T07:46:37.697Z,-1.18
2018-02-24T07:49:05.246Z,-0.80
2018-02-24T07:51:32.765Z,-0.67
2018-02-24T07:54:01.292Z,-0.65
2018-02-24T07:56:28.839Z,-0.90
2018-02-24T07:58:56.361Z,-0.58
2018-02-24T08:01:24.178Z,-0.41
2018-02-24T08:03:51.713Z,-0.50
2018-02-24T08:06:19.234Z,-0.48
2018-02-24T08:08:46.798Z,-0.77
2018-02-24T08:11:14.326Z,-0.43
2018-02-24T08:13:42.060Z,-0.10
2018-02-24T08:16:09.577Z,-0.30
2018-02-24T08:18:37.239Z,-0.20
2018-02-24T08:21:04.857Z,-0.08
2018-02-24T08:23:32.482Z,0.04
2018-02-24T08:26:00.056Z,0.31
2018-02-24T08:28:27.640Z,0.02
2018-02-24T08:30:55.365Z,0.06
2018-02-24T08:33:22.949Z,0.15
2018-02-24T08:35:50.470Z,0.33
2018-02-24T08:38:18.272Z,0.36
2018-02-24T08:40:45.797Z,0.29
2018-02-24T08:43:14.023Z,0.55
2018-02-24T08:45:41.578Z,0.52
2018-02-24T08:48:09.108Z,0.77
2018-02-24T08:50:36.702Z,1.18
2018-02-24T08:53:04.227Z,0.78
2018-02-24T08:55:32.119Z,0.81
2018-02-24T08:58:00.216Z,0.85
2018-02-24T09:00:27.636Z,1.28
2018-02-24T09:02:55.326Z,1.13
2018-02-24T09:05:22.848Z,1.28
2018-02-24T09:07:50.508Z,1.40
2018-02-24T09:10:18.089Z,1.28
2018-02-24T09:12:45.632Z,1.39
2018-02-24T09:15:13.924Z,1.41
2018-02-24T09:17:42.405Z,1.49
2018-02-24T09:20:09.922Z,2.00
2018-02-24T09:22:37.478Z,2.12
2018-02-24T09:25:05.025Z,2.28
2018-02-24T09:27:32.933Z,2.34
2018-02-24T09:30:00.450Z,2.24
2018-02-24T09:32:27.983Z,2.58
2018-02-24T09:34:55.627Z,2.54
2018-02-24T09:37:23.186Z,3.17
2018-02-24T09:39:51.052Z,6.49
2018-02-24T09:42:18.613Z,8.97
2018-02-24T09:44:46.142Z,10.23
2018-02-24T09:47:14.122Z,11.18
2018-02-24T09:49:41.798Z,11.82
2018-02-24T09:52:09.691Z,13.53
2018-02-24T09:54:37.394Z,13.94
2018-02-24T09:57:05.088Z,13.26
2018-02-24T09:59:32.857Z,13.35
2018-02-24T10:02:00.621Z,13.23
2018-02-24T10:04:28.439Z,13.33
2018-02-24T10:06:56.331Z,13.46
2018-02-24T10:09:24.120Z,14.05
2018-02-24T10:11:51.983Z,14.43
2018-02-24T10:14:19.736Z,13.86
2018-02-24T10:16:47.519Z,14.76
2018-02-24T10:19:15.379Z,13.48
2018-02-24T10:21:42.967Z,13.84
2018-02-24T10:24:10.778Z,14.06
2018-02-24T10:26:38.327Z,14.56
2018-02-24T10:29:06.127Z,14.19
2018-02-24T10:31:33.994Z,15.33
2018-02-24T10:34:01.657Z,16.39
2018-02-24T10:36:29.250Z,16.11
2018-02-24T10:38:56.877Z,15.68
2018-02-24T10:41:24.821Z,15.93
2018-02-24T10:43:52.508Z,16.18
2018-02-24T10:46:21.193Z,16.28
2018-02-24T10:48:48.832Z,15.99
2018-02-24T10:51:16.360Z,16.05
2018-02-24T10:53:43.942Z,15.85
2018-02-24T10:56:11.740Z,15.67
2018-02-24T10:58:39.337Z,15.79
2018-02-24T11:01:07.133Z,16.36
2018-02-24T11:03:34.825Z,16.55
2018-02-24T11:06:02.581Z,15.94
2018-02-24T11:08:30.161Z,16.67
2018-02-24T11:10:57.912Z,16.65
2018-02-24T11:13:25.674Z,16.77
2018-02-24T11:15:53.297Z,18.06
2018-02-24T11:18:21.100Z,17.33
2018-02-24T11:20:48.979Z,16.64
2018-02-24T11:23:16.732Z,17.75
2018-02-24T11:25:44.495Z,17.06
2018-02-24T11:28:12.062Z,16.11
2018-02-24T11:30:39.818Z,16.64
2018-02-24T11:33:07.481Z,17.14
2018-02-24T11:35:35.320Z,18.15
2018-02-24T11:38:03.214Z,16.46
2018-02-24T11:40:30.846Z,17.10
2018-02-24T11:42:58.843Z,18.40
2018-02-24T11:45:26.622Z,16.13
2018-02-24T11:47:54.370Z,18.08
2018-02-24T11:50:22.121Z,16.05
2018-02-24T11:52:49.943Z,16.52
2018-02-24T11:55:17.869Z,16.93
2018-02-24T11:57:45.742Z,17.61
2018-02-24T12:00:13.544Z,17.78
2018-02-24T12:02:41.262Z,15.99
2018-02-24T12:05:08.828Z,17.13
2018-02-24T12:07:37.036Z,17.34
2018-02-24T12:10:04.933Z,17.18
2018-02-24T12:12:32.478Z,18.36
2018-02-24T12:15:00.022Z,17.82
2018-02-24T12:17:27.641Z,17.11
2018-02-24T12:19:55.508Z,17.13
2018-02-24T12:22:23.375Z,17.05
2018-02-24T12:24:51.018Z,18.29
2018-02-24T12:27:18.901Z,18.34
2018-02-24T12:29:46.769Z,17.06
2018-02-24T12:32:14.711Z,16.53
2018-02-24T12:34:42.508Z,17.60
2018-02-24T12:37:10.368Z,17.13
2018-02-24T12:39:38.039Z,14.40
2018-02-24T12:42:05.795Z,11.41
2018-02-24T12:44:33.694Z,8.61
2018-02-24T12:47:01.630Z,7.53
2018-02-24T12:49:29.495Z,6.93
2018-02-24T12:51:57.362Z,6.99
2018-02-24T12:54:26.149Z,6.50
2018-02-24T12:56:53.915Z,6.35
2018-02-24T12:59:21.574Z,6.20
2018-02-24T13:01:49.443Z,6.54
2018-02-24T13:04:17.087Z,6.88
2018-02-24T13:06:44.606Z,6.32
2018-02-24T13:09:12.355Z,6.41
2018-02-24T13:11:40.190Z,6.26
2018-02-24T13:14:07.761Z,6.36
2018-02-24T13:16:35.331Z,6.21
2018-02-24T13:19:02.972Z,6.37
2018-02-24T13:21:30.570Z,6.29
2018-02-24T13:23:58.395Z,6.31
2018-02-24T13:26:26.226Z,6.67
2018-02-24T13:28:53.818Z,6.73
2018-02-24T13:31:21.584Z,6.53
2018-02-24T13:33:49.353Z,6.39
2018-02-24T13:36:17.114Z,6.31
2018-02-24T13:38:44.786Z,6.28
2018-02-24T13:41:12.430Z,6.50
2018-02-24T13:43:40.043Z,6.67
2018-02-24T13:46:07.950Z,6.79
2018-02-24T13:48:36.548Z,6.24
2018-02-24T13:51:04.415Z,6.43
2018-02-24T13:53:32.172Z,6.30
2018-02-24T13:55:59.901Z,6.34
2018-02-24T13:58:27.770Z,6.13
2018-02-24T14:00:55.312Z,5.88
2018-02-24T14:03:23.325Z,5.96
2018-02-24T14:05:51.003Z,6.16
2018-02-24T14:08:18.866Z,5.86
2018-02-24T14:10:47.142Z,6.05
2018-02-24T14:13:15.013Z,6.19
2018-02-24T14:15:42.747Z,6.29
2018-02-24T14:18:10.844Z,6.07
2018-02-24T14:20:38.610Z,6.28
2018-02-24T14:23:07.154Z,6.12
2018-02-24T14:25:34.833Z,5.96
2018-02-24T14:28:02.689Z,6.20
2018-02-24T14:30:30.343Z,5.95
2018-02-24T14:32:57.883Z,5.95
2018-02-24T14:35:25.705Z,6.27
2018-02-24T14:37:53.304Z,6.20
2018-02-24T14:40:20.905Z,6.38
2018-02-24T14:42:48.587Z,6.39
2018-02-24T14:45:16.250Z,6.38
2018-02-24T14:47:44.049Z,5.98
2018-02-24T14:50:11.777Z,6.32
2018-02-24T14:52:39.643Z,6.07
2018-02-24T14:55:08.841Z,5.86
2018-02-24T14:57:36.708Z,5.71
2018-02-24T15:00:04.778Z,5.45
2018-02-24T15:02:32.543Z,5.57
2018-02-24T15:05:00.450Z,5.61
2018-02-24T15:07:28.406Z,5.51
2018-02-24T15:09:56.143Z,5.57
2018-02-24T15:12:24.416Z,5.58
2018-02-24T15:14:52.388Z,5.46
2018-02-24T15:17:20.251Z,5.42
2018-02-24T15:19:49.044Z,5.46
2018-02-24T15:22:17.734Z,5.34
2018-02-24T15:24:45.694Z,5.41
2018-02-24T15:27:13.423Z,5.11
2018-02-24T15:29:41.325Z,4.93
2018-02-24T15:32:09.092Z,5.06
2018-02-24T15:34:37.057Z,5.05
2018-02-24T15:37:05.231Z,4.81
2018-02-24T15:39:33.346Z,4.85
2018-02-24T15:42:00.939Z,4.62
2018-02-24T15:44:28.627Z,4.78
2018-02-24T15:46:56.213Z,4.79
2018-02-24T15:49:24.666Z,4.59
2018-02-24T15:51:52.567Z,4.58
2018-02-24T15:54:21.967Z,4.47
2018-02-24T15:56:49.915Z,4.30
2018-02-24T15:59:18.796Z,4.33
2018-02-24T16:01:46.768Z,4.21
2018-02-24T16:04:14.537Z,4.00
2018-02-24T16:06:42.280Z,4.06
2018-02-24T16:09:10.365Z,4.13
2018-02-24T16:11:38.227Z,4.20
2018-02-24T16:14:06.198Z,4.16
2018-02-24T16:16:33.954Z,3.82
2018-02-24T16:19:02.144Z,4.01
2018-02-24T16:21:30.513Z,4.10
2018-02-24T16:23:59.300Z,3.98
2018-02-24T16:26:27.635Z,4.00
2018-02-24T16:28:55.458Z,3.92
2018-02-24T16:31:23.307Z,3.84
2018-02-24T16:33:51.175Z,3.64
2018-02-24T16:36:18.909Z,3.54
2018-02-24T16:38:46.701Z,3.62
2018-02-24T16:41:14.569Z,3.43
2018-02-24T16:43:42.428Z,3.43
2018-02-24T16:46:10.101Z,3.39
2018-02-24T16:48:37.737Z,3.64
2018-02-24T16:51:05.627Z,3.39
2018-02-24T16:53:33.262Z,3.35
2018-02-24T16:56:00.953Z,3.33
2018-02-24T16:58:28.815Z,3.24
2018-02-24T17:00:56.476Z,3.10
2018-02-24T17:03:24.548Z,3.22
2018-02-24T17:05:52.212Z,3.03
2018-02-24T17:08:20.445Z,3.13
2018-02-24T17:10:48.331Z,3.07
2018-02-24T17:13:16.629Z,2.70
2018-02-24T17:15:44.542Z,2.43
2018-02-24T17:18:12.432Z,2.70
2018-02-24T17:20:40.229Z,2.62
2018-02-24T17:23:07.992Z,2.73
2018-02-24T17:25:36.129Z,2.62
2018-02-24T17:28:04.851Z,2.26
2018-02-24T17:30:32.717Z,2.65
2018-02-24T17:33:00.584Z,2.42
2018-02-24T17:35:29.473Z,2.41
2018-02-24T17:37:57.354Z,2.35
2018-02-24T17:40:25.481Z,2.23
2018-02-24T17:42:53.379Z,2.22
2018-02-24T17:45:21.143Z,2.35
2018-02-24T17:47:48.828Z,2.06
2018-02-24T17:50:16.619Z,2.09
2018-02-24T17:52:45.665Z,1.95
2018-02-24T17:55:13.412Z,1.88
2018-02-24T17:57:41.300Z,1.82
2018-02-24T18:00:09.166Z,1.97
2018-02-24T18:02:36.926Z,1.99
2018-02-24T18:05:04.587Z,2.07
2018-02-24T18:07:32.350Z,1.97
2018-02-24T18:09:59.909Z,1.94
2018-02-24T18:12:27.666Z,1.96
2018-02-24T18:14:55.439Z,1.64
2018-02-24T18:17:23.277Z,1.82
2018-02-24T18:19:50.968Z,1.78
2018-02-24T18:22:19.363Z,1.79
2018-02-24T18:24:47.177Z,1.72
2018-02-24T18:27:15.078Z,1.84
2018-02-24T18:29:43.046Z,1.88
2018-02-24T18:32:10.706Z,1.87
2018-02-24T18:34:38.623Z,1.77
2018-02-24T18:37:06.442Z,1.51
2018-02-24T18:39:34.517Z,1.65
2018-02-24T18:42:02.377Z,1.83
2018-02-24T18:44:29.964Z,1.78
2018-02-24T18:46:57.519Z,1.72
2018-02-24T18:49:25.185Z,1.81
2018-02-24T18:51:53.026Z,1.57
2018-02-24T18:54:20.755Z,1.48
2018-02-24T18:56:48.357Z,1.27
2018-02-24T18:59:16.017Z,1.51
2018-02-24T19:01:43.979Z,1.26
2018-02-24T19:04:11.812Z,1.13
2018-02-24T19:06:40.633Z,1.28
2018-02-24T19:09:08.471Z,1.43
2018-02-24T19:11:36.469Z,1.26
2018-02-24T19:14:04.438Z,1.22
2018-02-24T19:16:32.270Z,1.16
2018-02-24T19:19:00.173Z,1.27
2018-02-24T19:21:28.003Z,0.98
2018-02-24T19:23:56.312Z,1.02
2018-02-24T19:26:24.179Z,1.12
2018-02-24T19:28:51.840Z,1.17
2018-02-24T19:31:19.809Z,1.06
2018-02-24T19:33:47.581Z,0.90
2018-02-24T19:36:15.648Z,0.87
2018-02-24T19:38:43.444Z,0.88
2018-02-24T19:41:11.269Z,0.70
2018-02-24T19:43:39.300Z,0.54
2018-02-24T19:46:07.067Z,0.94
2018-02-24T19:48:34.978Z,0.77
2018-02-24T19:51:02.945Z,0.77
2018-02-24T19:53:31.017Z,0.95
2018-02-24T19:55:58.986Z,0.70
2018-02-24T19:58:26.996Z,0.70
2018-02-24T20:00:55.027Z,0.67
2018-02-24T20:03:22.790Z,0.70
2018-02-24T20:05:50.655Z,0.46
2018-02-24T20:08:18.517Z,0.49
2018-02-24T20:10:47.259Z,0.57
2018-02-24T20:13:15.074Z,0.59
2018-02-24T20:15:42.795Z,0.71
2018-02-24T20:18:10.616Z,0.54
2018-02-24T20:20:38.775Z,0.54
2018-02-24T20:23:06.746Z,0.37
2018-02-24T20:25:34.506Z,0.41
2018-02-24T20:28:02.699Z,0.32
2018-02-24T20:30:30.458Z,0.19
2018-02-24T20:32:58.416Z,0.06
2018-02-24T20:35:26.805Z,0.13
2018-02-24T20:37:54.660Z,0.21
2018-02-24T20:40:23.448Z,0.05
2018-02-24T20:42:52.132Z,0.02
2018-02-24T20:45:20.409Z,-0.25
2018-02-24T20:47:48.891Z,-0.25
2018-02-24T20:50:16.777Z,-0.02
2018-02-24T20:52:44.623Z,0.00
2018-02-24T20:55:12.554Z,0.06
2018-02-24T20:57:40.518Z,0.04
2018-02-24T21:00:08.324Z,-0.12
2018-02-24T21:02:36.504Z,-0.11
2018-02-24T21:05:04.469Z,-0.01
2018-02-24T21:07:32.388Z,0.07
2018-02-24T21:10:00.405Z,0.00
2018-02-24T21:12:28.274Z,-0.39
2018-02-24T21:14:56.137Z,-0.01
2018-02-24T21:17:24.005Z,-0.31
2018-02-24T21:19:52.587Z,0.03
2018-02-24T21:22:20.363Z,-0.18
2018-02-24T21:24:48.498Z,-0.35
2018-02-24T21:27:16.389Z,-0.24
2018-02-24T21:29:44.167Z,-0.12
2018-02-24T21:32:12.329Z,-0.34
2018-02-24T21:34:40.139Z,-0.56
2018-02-24T21:37:08.369Z,-0.57
2018-02-24T21:39:36.302Z,-0.20
2018-02-24T21:42:04.103Z,-0.53
2018-02-24T21:44:31.969Z,-0.43
2018-02-24T21:46:59.796Z,-0.50
2018-02-24T21:49:27.701Z,-0.75
2018-02-24T21:51:55.671Z,-0.59
2018-02-24T21:54:23.740Z,-0.66
2018-02-24T21:56:51.711Z,-0.77
2018-02-24T21:59:19.577Z,-0.52
2018-02-24T22:01:47.442Z,-0.59
2018-02-24T22:04:15.413Z,-0.60
2018-02-24T22:06:44.560Z,-0.92
2018-02-24T22:09:12.578Z,-0.80
2018-02-24T22:11:40.444Z,-0.63
2018-02-24T22:14:08.310Z,-1.02
2018-02-24T22:16:36.689Z,-0.83
2018-02-24T22:19:04.555Z,-0.80
2018-02-24T22:21:32.742Z,-0.96
2018-02-24T22:24:00.596Z,-0.90
2018-02-24T22:26:28.857Z,-1.37
2018-02-24T22:28:56.605Z,-1.04
2018-02-24T22:31:25.541Z,-0.96
2018-02-24T22:33:53.493Z,-1.32
2018-02-24T22:36:21.498Z,-0.98
2018-02-24T22:38:49.288Z,-0.97
2018-02-24T22:41:17.158Z,-1.36
2018-02-24T22:43:44.960Z,-1.45
2018-02-24T22:46:13.029Z,-1.47
2018-02-24T22:48:46.327Z,-1.15
2018-02-24T22:51:14.278Z,-1.60
2018-02-24T22:53:42.013Z,-1.48
2018-02-24T22:56:09.822Z,-1.57
2018-02-24T22:58:37.440Z,-1.50
2018-02-24T23:01:05.247Z,-1.13
2018-02-24T23:03:33.319Z,-1.36
2018-02-24T23:06:00.982Z,-1.43
2018-02-24T23:08:28.759Z,-1.45
2018-02-24T23:10:56.613Z,-1.69
2018-02-24T23:13:24.373Z,-1.75
2018-02-24T23:15:52.286Z,-1.68
